Time;durP1;ratioP1;P1;durP2;ratioP2;P2;SDS_P1;SDS_P2;PMS_P1;PMS_P2;Temp;Humidity;BMP_temperature;BMP_pressure;BME280_temperature;BME280_humidity;BME280_pressure;Samples;Min_cycle;Max_cycle;Signal;HPM_P1;HPM_P2
2022/02/02 00:00:06;;;;;;;;;15.75;15.00;;;;;20.82;37.58;101821.19;5078104;27;46438;-56
2022/02/02 00:02:54;;;;;;;;;11.75;10.00;;;;;20.80;37.68;101818.63;5078273;27;45362;-57
2022/02/02 00:07:52;;;;;;;;;17.50;13.00;;;;;20.79;38.05;101805.50;5078432;28;45361;-56
2022/02/02 00:10:47;;;;;;;;;13.50;11.50;;;;;20.79;37.77;101801.09;5092763;27;47002;-56
2022/02/02 00:13:11;;;;;;;;;11.00;9.75;;;;;20.80;38.29;101807.22;5077540;28;45329;-57
2022/02/02 00:15:52;;;;;;;;;11.25;10.25;;;;;20.79;37.89;101816.03;5078085;27;45375;-57
2022/02/02 00:21:06;;;;;;;;;13.25;10.25;;;;;20.78;37.93;101814.34;5077873;28;45222;-56
2022/02/02 00:23:45;;;;;;;;;16.00;13.00;;;;;20.77;37.71;101807.38;5076696;28;45736;-56
2022/02/02 00:26:36;;;;;;;;;10.50;10.50;;;;;20.76;37.85;101803.03;5077638;27;45225;-54
2022/02/02 00:29:02;;;;;;;;;12.25;12.25;;;;;20.75;37.84;101807.41;5077582;28;45208;-57
2022/02/02 00:31:35;;;;;;;;;13.00;11.50;;;;;20.75;37.72;101809.19;5076593;28;47271;-52
2022/02/02 00:34:05;;;;;;;;;12.00;12.00;;;;;20.74;37.99;101808.31;5077918;27;45704;-53
2022/02/02 00:36:41;;;;;;;;;10.50;9.50;;;;;20.72;37.73;101809.28;5078073;27;45451;-54
2022/02/02 00:39:06;;;;;;;;;12.75;10.75;;;;;20.73;38.16;101811.00;5076569;27;45379;-56
2022/02/02 00:41:31;;;;;;;;;11.00;11.00;;;;;20.74;37.91;101825.91;5077537;27;46399;-56
2022/02/02 00:44:00;;;;;;;;;11.00;8.75;;;;;20.74;37.82;101818.00;5077970;28;45319;-55
2022/02/02 00:46:27;;;;;;;;;13.50;10.25;;;;;20.71;37.99;101811.06;5077641;27;45337;-55
2022/02/02 00:48:59;;;;;;;;;14.00;9.75;;;;;20.72;37.80;101819.81;5077728;27;45510;-55
2022/02/02 00:51:33;;;;;;;;;13.25;11.25;;;;;20.72;37.92;101814.56;5076915;27;47403;-56
2022/02/02 00:53:58;;;;;;;;;13.50;9.25;;;;;20.72;38.25;101819.81;5077527;27;45882;-55
2022/02/02 00:56:24;;;;;;;;;9.50;9.50;;;;;20.70;37.66;101826.00;5077392;28;45454;-55
2022/02/02 00:58:49;;;;;;;;;13.00;11.00;;;;;20.70;37.92;101831.28;5077530;28;45671;-54
2022/02/02 01:01:14;;;;;;;;;12.00;9.50;;;;;20.70;37.81;101825.16;5077122;27;46221;-55
2022/02/02 01:03:40;;;;;;;;;10.00;9.00;;;;;20.68;38.17;101835.75;5077367;27;45298;-54
2022/02/02 01:06:08;;;;;;;;;8.75;7.75;;;;;20.69;37.79;101826.94;5077310;27;45399;-54
2022/02/02 01:29:50;;;;;;;;;9.25;9.25;;;;;20.67;38.09;101823.50;5077245;28;45401;-55
2022/02/02 01:32:15;;;;;;;;;7.00;7.00;;;;;20.70;38.79;101823.38;5076753;28;45355;-55
2022/02/02 01:34:41;;;;;;;;;7.75;5.25;;;;;20.74;38.53;101823.25;5076651;27;45435;-52
2022/02/02 01:37:06;;;;;;;;;5.75;5.75;;;;;20.78;38.04;101831.00;5077130;28;45432;-53
2022/02/02 01:39:33;;;;;;;;;10.75;7.00;;;;;20.83;38.50;101826.41;5077284;27;46024;-54
2022/02/02 01:42:00;;;;;;;;;9.25;6.75;;;;;20.89;37.97;101827.91;5075617;27;46527;-53
2022/02/02 01:44:44;;;;;;;;;9.25;8.25;;;;;20.94;38.56;101825.97;5076685;27;45706;-54
2022/02/02 01:47:11;;;;;;;;;6.50;6.00;;;;;21.00;37.87;101836.25;5076534;27;45369;-54
2022/02/02 01:53:08;;;;;;;;;7.25;7.25;;;;;21.10;38.25;101835.88;5076589;27;45887;-55
2022/02/02 01:55:10;;;;;;;;;10.00;7.00;;;;;21.15;38.05;101828.63;5072449;27;45939;-55
2022/02/02 02:00:31;;;;;;;;;7.25;5.50;;;;;21.24;37.86;101822.94;5067739;27;45365;-55
2022/02/02 02:02:59;;;;;;;;;5.75;5.75;;;;;21.29;38.06;101825.38;5076513;27;45343;-56
2022/02/02 02:05:24;;;;;;;;;8.00;6.50;;;;;21.34;37.88;101838.38;5076539;27;45385;-56
2022/02/02 02:07:50;;;;;;;;;5.00;5.00;;;;;21.36;37.84;101837.41;5076633;28;45319;-57
2022/02/02 02:10:15;;;;;;;;;5.25;4.00;;;;;21.40;37.95;101840.75;5076842;28;45592;-56
2022/02/02 02:12:51;;;;;;;;;8.00;5.00;;;;;21.41;37.61;101835.41;5076395;27;46417;-57
2022/02/02 02:15:18;;;;;;;;;6.25;6.00;;;;;21.45;37.46;101836.13;5076330;27;45285;-57
2022/02/02 02:17:43;;;;;;;;;5.25;5.25;;;;;21.48;37.80;101841.28;5076537;27;45319;-56
2022/02/02 02:20:10;;;;;;;;;5.50;5.50;;;;;21.48;37.50;101836.00;5076510;28;45424;-57
2022/02/02 02:22:39;;;;;;;;;5.00;3.00;;;;;21.51;37.91;101824.44;5076551;27;47078;-56
2022/02/02 02:25:05;;;;;;;;;5.25;5.00;;;;;21.52;37.42;101824.41;5076566;27;45771;-56
2022/02/02 02:27:30;;;;;;;;;5.00;5.00;;;;;21.52;37.40;101821.78;5076502;27;45244;-55
2022/02/02 02:30:08;;;;;;;;;6.75;5.00;;;;;21.53;37.34;101819.97;5076434;27;45187;-57
2022/02/02 02:37:57;;;;;;;;;5.00;4.75;;;;;21.52;37.51;101829.69;5076259;27;45353;-56
2022/02/02 02:56:29;;;;;;;;;7.75;4.00;;;;;21.52;37.37;101827.03;5079225;27;45783;-55
2022/02/02 02:59:05;;;;;;;;;5.25;5.25;;;;;21.52;37.42;101829.69;5079429;27;45435;-54
2022/02/02 03:58:39;;;;;;;;;6.25;5.50;;;;;21.31;37.86;101845.50;5078224;27;46062;-55
2022/02/02 04:06:09;;;;;;;;;4.00;4.00;;;;;21.29;37.82;101831.53;5078714;27;45435;-53
2022/02/02 04:08:39;;;;;;;;;5.50;4.00;;;;;21.27;37.50;101841.28;5078179;27;46678;-55
2022/02/02 04:11:15;;;;;;;;;4.00;4.00;;;;;21.28;37.52;101842.13;5078127;27;45240;-53
2022/02/02 05:07:07;;;;;;;;;2.75;2.00;;;;;21.09;38.33;101829.72;5076153;28;45429;-52
2022/02/02 05:20:23;;;;;;;;;4.75;4.00;;;;;21.05;38.05;101845.75;5077386;27;45201;-55
2022/02/02 05:40:50;;;;;;;;;5.00;5.00;;;;;21.03;38.14;101855.47;5076897;27;45310;-53
2022/02/02 05:45:09;;;;;;;;;4.25;4.25;;;;;20.97;38.47;101865.38;5076864;28;45801;-54
2022/02/02 05:53:01;;;;;;;;;5.00;5.00;;;;;20.95;38.71;101874.25;5077007;27;45506;-56
2022/02/02 05:55:32;;;;;;;;;8.25;6.75;;;;;20.88;38.26;101878.06;5076502;27;46820;-54
2022/02/02 05:58:00;;;;;;;;;4.75;4.75;;;;;20.69;38.88;101873.50;5076384;27;45990;-54
2022/02/02 06:00:26;;;;;;;;;6.50;6.50;;;;;20.53;39.13;101884.63;5076722;27;45365;-56
2022/02/02 06:02:57;;;;;;;;;9.00;6.50;;;;;20.41;38.70;101881.63;5076718;27;45338;-56
2022/02/02 06:05:27;;;;;;;;;7.00;7.00;;;;;20.33;39.12;101880.13;5076206;27;45896;-56
2022/02/02 06:07:54;;;;;;;;;8.25;7.00;;;;;20.27;39.29;101879.50;5076444;27;45358;-56
2022/02/02 06:10:21;;;;;;;;;6.50;5.25;;;;;20.20;39.81;101878.88;5076543;27;45346;-56
2022/02/02 06:12:47;;;;;;;;;6.75;6.00;;;;;20.12;39.79;101880.94;5076740;27;45184;-56
2022/02/02 06:15:16;;;;;;;;;6.00;6.00;;;;;20.05;39.54;101889.06;5076328;27;46292;-57
2022/02/02 06:17:47;;;;;;;;;12.50;7.00;;;;;20.01;39.85;101892.69;5076419;28;45280;-55
2022/02/02 06:20:12;;;;;;;;;6.25;6.25;;;;;19.94;39.80;101888.59;5076561;27;45347;-54
2022/02/02 06:22:47;;;;;;;;;7.00;7.00;;;;;19.82;39.83;101891.63;5076475;28;45359;-55
2022/02/02 06:25:23;;;;;;;;;6.25;6.25;;;;;19.72;40.39;101899.84;5075973;28;45554;-53
2022/02/02 06:27:57;;;;;;;;;5.00;5.00;;;;;19.63;40.25;101900.16;5078240;28;45890;-54
2022/02/02 06:30:24;;;;;;;;;9.00;6.50;;;;;19.55;40.52;101900.41;5079796;27;45421;-53
2022/02/02 06:32:52;;;;;;;;;6.50;6.25;;;;;19.53;40.74;101904.03;5078669;28;45620;-54
2022/02/02 06:35:19;;;;;;;;;5.00;5.00;;;;;19.51;40.83;101901.47;5079853;27;45289;-54
2022/02/02 06:37:46;;;;;;;;;5.00;4.75;;;;;19.49;40.84;101903.28;5079995;27;45253;-52
2022/02/02 06:40:14;;;;;;;;;6.50;5.25;;;;;19.45;40.54;101899.00;5079817;27;45234;-52
2022/02/02 06:42:40;;;;;;;;;4.00;4.00;;;;;19.43;40.46;101900.84;5079951;27;46021;-53
2022/02/02 06:45:08;;;;;;;;;4.00;4.00;;;;;19.45;40.80;101910.41;5079268;27;46668;-52
2022/02/02 06:47:35;;;;;;;;;4.00;4.00;;;;;19.44;40.71;101908.69;5078209;28;45278;-54
2022/02/02 06:50:38;;;;;;;;;5.50;5.00;;;;;19.40;40.88;101914.94;5078198;27;45273;-53
2022/02/02 06:53:22;;;;;;;;;4.00;2.00;;;;;19.54;40.79;101913.63;5078258;28;45278;-53
2022/02/02 06:56:12;;;;;;;;;5.00;3.75;;;;;19.68;40.45;101923.66;5079617;27;45446;-53
2022/02/02 06:59:00;;;;;;;;;4.00;4.00;;;;;19.80;40.75;101917.09;5079254;27;45295;-51
2022/02/02 07:04:16;;;;;;;;;3.50;3.50;;;;;19.98;40.15;101927.03;5079380;27;45348;-52
2022/02/02 07:07:01;;;;;;;;;3.00;3.00;;;;;20.06;39.87;101921.50;5078868;27;46122;-52
2022/02/02 07:12:25;;;;;;;;;2.75;2.75;;;;;20.22;40.06;101938.44;5079112;27;45479;-56
2022/02/02 07:17:42;;;;;;;;;3.25;3.25;;;;;20.34;40.29;101945.03;5079273;27;45180;-54
2022/02/02 07:27:46;;;;;;;;;5.00;3.00;;;;;20.54;39.81;101938.19;5078737;27;45309;-56
2022/02/02 07:32:42;;;;;;;;;2.75;2.75;;;;;20.62;40.17;101941.38;5078990;27;45314;-55
2022/02/02 07:37:49;;;;;;;;;3.75;3.75;;;;;20.68;39.71;101953.44;5078648;27;45364;-55
2022/02/02 07:40:16;;;;;;;;;5.25;4.25;;;;;20.70;39.40;101952.47;5077480;27;45740;-56
2022/02/02 07:42:46;;;;;;;;;3.00;3.00;;;;;20.72;39.96;101957.69;5078739;27;45324;-55
2022/02/02 07:45:12;;;;;;;;;2.00;2.00;;;;;20.75;39.63;101967.28;5078855;27;45910;-56
2022/02/02 07:47:43;;;;;;;;;3.00;3.00;;;;;20.78;39.71;101967.16;5078454;27;46272;-55
2022/02/02 07:50:11;;;;;;;;;5.00;3.25;;;;;20.79;39.79;101967.09;5078331;27;45448;-55
2022/02/02 07:52:38;;;;;;;;;4.00;4.00;;;;;20.82;39.63;101969.63;5077432;27;45454;-54
2022/02/02 07:55:06;;;;;;;;;3.00;3.00;;;;;20.84;39.29;101964.28;5077414;28;45492;-55
2022/02/02 07:57:32;;;;;;;;;3.25;3.00;;;;;20.85;39.67;101968.63;5080173;27;47193;-53
2022/02/02 08:00:16;;;;;;;;;2.00;2.00;;;;;20.85;39.65;101958.09;5083408;27;45268;-53
2022/02/02 08:05:10;;;;;;;;;2.00;2.00;;;;;20.89;39.44;101957.03;5078352;27;45490;-53
2022/02/02 08:07:41;;;;;;;;;2.25;2.25;;;;;20.90;39.36;101961.38;5078022;27;45456;-55
2022/02/02 08:12:42;;;;;;;;;3.00;3.00;;;;;20.94;39.34;101972.69;5078070;27;45471;-52
2022/02/02 08:15:09;;;;;;;;;5.00;3.00;;;;;20.94;39.22;101977.97;5077950;27;45480;-54
2022/02/02 08:17:35;;;;;;;;;4.75;3.00;;;;;20.94;39.42;101968.28;5077722;27;45394;-54
2022/02/02 08:20:00;;;;;;;;;2.25;2.25;;;;;20.94;39.38;101970.06;5076543;27;45343;-56
2022/02/02 08:22:29;;;;;;;;;5.00;2.75;;;;;20.93;39.36;101979.72;5078022;27;45321;-54
2022/02/02 08:24:55;;;;;;;;;3.00;2.00;;;;;20.93;39.30;101977.09;5078129;27;45612;-55
2022/02/02 08:27:20;;;;;;;;;4.50;2.00;;;;;20.92;39.75;101979.81;5093807;27;47173;-55
2022/02/02 08:29:47;;;;;;;;;3.25;1.50;;;;;20.91;39.61;101986.81;5076569;28;45312;-56
2022/02/02 08:32:13;;;;;;;;;4.75;4.75;;;;;20.94;39.97;101988.50;5077926;27;45552;-55
2022/02/02 08:34:44;;;;;;;;;40.50;36.25;;;;;20.93;39.49;101986.78;5077904;27;45307;-55
2022/02/02 08:37:10;;;;;;;;;43.75;34.00;;;;;20.92;40.04;101985.91;5077563;27;48075;-55
2022/02/02 08:42:15;;;;;;;;;59.25;44.50;;;;;20.94;40.07;101994.63;5077685;27;45328;-55
2022/02/02 08:45:15;;;;;;;;;71.00;57.50;;;;;20.94;40.00;101994.63;5077933;27;45578;-57
2022/02/02 08:47:30;;;;;;;;;86.00;82.25;;;;;20.94;40.16;101997.25;5076989;28;46026;-57
2022/02/02 08:49:58;;;;;;;;;107.00;101.75;;;;;20.93;40.47;101995.53;5077178;27;45404;-57
2022/02/02 08:52:33;;;;;;;;;129.00;118.50;;;;;20.95;40.59;101995.47;5076454;27;45349;-59
2022/02/02 08:55:04;;;;;;;;;144.00;136.50;;;;;20.94;40.35;102005.16;5077556;27;45364;-57
2022/02/02 08:57:52;;;;;;;;;159.00;149.50;;;;;20.91;40.02;102000.00;5077178;27;46273;-56
2022/02/02 09:00:23;;;;;;;;;930.50;754.00;;;;;20.89;40.30;101996.56;5076546;27;45393;-57
2022/02/02 09:05:19;;;;;;;;;1311.33;948.17;;;;;20.87;40.30;101998.44;5076593;27;45251;-56
2022/02/02 09:05:37;;;;;;;;;1145.83;891.50;;;;;20.85;40.72;101995.84;5076430;27;45486;-57
2022/02/02 09:08:03;;;;;;;;;1129.20;861.00;;;;;20.82;40.55;101988.06;5076271;27;45460;-56
2022/02/02 09:24:19;;;;;;;;;973.50;745.25;;;;;20.69;41.16;101990.25;5067247;27;45382;-57
2022/02/02 09:34:41;;;;;;;;;810.67;660.50;;;;;20.63;41.23;101982.59;5076206;27;45278;-57
2022/02/02 09:37:06;;;;;;;;;218.33;182.67;;;;;20.63;41.18;101979.09;5076614;28;45227;-49
2022/02/02 09:39:39;;;;;;;;;176.25;158.75;;;;;20.54;39.93;101973.25;5076492;27;45413;-53
2022/02/02 09:42:11;;;;;;;;;100.25;95.00;;;;;20.38;39.65;101990.56;5076681;27;45287;-55
2022/02/02 09:44:40;;;;;;;;;72.00;54.75;;;;;20.21;40.26;101989.38;5076673;27;45326;-51
2022/02/02 09:49:59;;;;;;;;;147.50;131.00;;;;;19.90;40.70;101979.94;5076536;27;45323;-56
2022/02/02 09:52:30;;;;;;;;;118.00;105.75;;;;;19.71;40.31;101989.31;5076898;28;45324;-58
2022/02/02 09:55:05;;;;;;;;;65.00;49.00;;;;;19.60;41.03;101989.66;5076808;28;45356;-53
2022/02/02 10:05:35;;;;;;;;;6.50;6.50;;;;;19.22;41.28;101997.88;5080195;27;45308;-57
2022/02/02 10:15:26;;;;;;;;;6.00;3.75;;;;;19.12;41.51;102007.84;5079995;28;45393;-49
2022/02/02 10:18:16;;;;;;;;;6.00;5.00;;;;;19.14;41.52;102003.38;5080184;27;45544;-54
2022/02/02 10:20:42;;;;;;;;;5.00;5.00;;;;;19.18;41.27;102008.53;5079731;27;46298;-54
2022/02/02 10:23:08;;;;;;;;;3.75;3.75;;;;;19.18;41.30;102006.78;5079665;27;45288;-55
2022/02/02 10:25:37;;;;;;;;;3.75;3.75;;;;;19.20;41.53;102014.63;5079700;28;45435;-56
2022/02/02 10:28:14;;;;;;;;;13.25;8.25;;;;;19.19;41.23;102002.38;5080114;27;45369;-52
2022/02/02 10:30:45;;;;;;;;;7.75;6.50;;;;;19.20;41.56;102010.22;5079805;27;46474;-51
2022/02/02 10:33:24;;;;;;;;;14.75;10.25;;;;;19.21;41.19;102017.19;5078138;27;45870;-48
2022/02/02 10:35:52;;;;;;;;;66.50;46.75;;;;;19.26;41.53;102009.16;5079748;27;45349;-51
2022/02/02 10:38:22;;;;;;;;;206.50;152.25;;;;;19.36;41.93;102013.22;5079870;27;45559;-50
2022/02/02 10:46:12;;;;;;;;;363.25;237.75;;;;;19.76;41.86;102033.00;5079636;27;45420;-52
2022/02/02 10:48:53;;;;;;;;;398.50;257.00;;;;;19.88;41.83;102034.38;5079473;27;45352;-55
2022/02/02 10:51:34;;;;;;;;;392.00;260.25;;;;;20.01;41.65;102036.59;5079259;28;45677;-55
2022/02/02 10:59:26;;;;;;;;;365.25;238.75;;;;;20.27;42.13;102030.41;5079387;27;45342;-56
2022/02/02 11:07:18;;;;;;;;;342.75;222.25;;;;;20.50;41.43;102028.72;5079027;27;45515;-55
2022/02/02 11:09:48;;;;;;;;;303.00;207.25;;;;;20.55;41.67;102024.16;5079269;27;45551;-53
2022/02/02 11:12:15;;;;;;;;;279.25;194.25;;;;;20.61;41.31;102018.66;5078723;27;46608;-54
2022/02/02 11:14:58;;;;;;;;;285.75;196.75;;;;;20.66;40.98;102021.13;5078707;27;45291;-54
2022/02/02 11:17:46;;;;;;;;;258.00;183.50;;;;;20.72;41.25;102028.81;5078955;27;45366;-56
2022/02/02 11:20:13;;;;;;;;;272.50;171.50;;;;;20.76;41.29;102022.53;5078976;27;45525;-56
2022/02/02 11:22:50;;;;;;;;;242.75;165.25;;;;;20.82;40.76;102021.44;5078516;27;46249;-56
2022/02/02 11:25:15;;;;;;;;;247.00;157.00;;;;;20.85;40.93;102026.59;5078582;27;45433;-57
2022/02/02 11:27:44;;;;;;;;;220.00;154.00;;;;;20.87;40.99;102035.31;5077562;27;45367;-54
2022/02/02 11:30:29;;;;;;;;;189.75;129.75;;;;;20.89;40.29;102032.63;5078883;27;45299;-57
2022/02/02 11:32:57;;;;;;;;;193.25;136.25;;;;;20.91;40.42;102036.06;5078356;27;46313;-57
2022/02/02 11:35:36;;;;;;;;;206.75;139.75;;;;;20.94;40.56;102036.78;5078382;27;45178;-53
2022/02/02 11:38:06;;;;;;;;;184.00;127.00;;;;;20.95;40.29;102032.38;5078968;27;45309;-56
2022/02/02 11:40:40;;;;;;;;;173.50;122.75;;;;;20.95;40.54;102030.59;5079089;28;45243;-56
2022/02/02 11:43:14;;;;;;;;;174.25;111.00;;;;;20.97;40.55;102034.06;5078232;27;45368;-57
2022/02/02 11:45:57;;;;;;;;;149.00;108.00;;;;;20.97;40.54;102020.88;5078138;27;45501;-56
2022/02/02 11:48:44;;;;;;;;;154.75;106.75;;;;;20.98;40.13;102022.59;5078513;27;45469;-55
2022/02/02 11:51:09;;;;;;;;;148.75;98.00;;;;;20.98;39.96;102027.88;5077089;27;45341;-50
2022/02/02 11:53:50;;;;;;;;;133.50;92.75;;;;;20.98;40.11;102021.72;5078136;28;46333;-51
2022/02/02 11:56:18;;;;;;;;;118.00;81.50;;;;;20.98;40.53;102025.22;5078158;27;45271;-56
2022/02/02 11:58:44;;;;;;;;;116.75;72.50;;;;;20.97;40.41;102020.00;5078340;27;45460;-57
2022/02/02 12:01:18;;;;;;;;;117.75;79.00;;;;;20.97;40.46;102020.88;5078400;28;45339;-56
2022/02/02 12:06:28;;;;;;;;;95.25;72.75;;;;;20.96;39.95;102029.69;5077873;27;45584;-58
2022/02/02 12:47:08;;;;;;;;;66.00;47.50;;;;;20.85;39.85;102014.28;5077908;28;45325;-57
2022/02/02 12:57:00;;;;;;;;;58.50;40.25;;;;;20.79;39.84;101992.56;5077583;28;45754;-48
2022/02/02 13:02:12;;;;;;;;;6.75;4.00;;;;;20.78;39.78;101999.63;5077275;27;45358;-56
2022/02/02 13:04:39;;;;;;;;;47.00;32.00;;;;;20.79;40.15;102000.47;5077350;28;45460;-47
2022/02/02 13:07:10;;;;;;;;;57.00;36.75;;;;;20.78;39.99;101988.25;5093369;27;45634;-52
2022/02/02 13:09:37;;;;;;;;;57.75;37.75;;;;;20.75;40.04;101991.00;5077215;27;45530;-56
2022/02/02 13:12:22;;;;;;;;;52.50;35.00;;;;;20.76;40.02;101997.97;5076953;27;45425;-56
2022/02/02 13:20:45;;;;;;;;;48.00;32.00;;;;;20.73;40.08;102006.78;5076953;28;45262;-52
2022/02/02 13:25:57;;;;;;;;;53.25;31.50;;;;;20.66;40.21;101993.03;5076847;27;45454;-53
2022/02/02 13:28:47;;;;;;;;;44.50;31.00;;;;;20.69;40.14;101998.16;5077248;27;45251;-53
2022/02/02 13:31:43;;;;;;;;;46.25;28.25;;;;;20.68;40.20;101993.81;5076775;27;46316;-53
2022/02/02 13:34:19;;;;;;;;;38.75;25.50;;;;;20.67;39.83;102002.63;5077151;27;45326;-48
2022/02/02 13:42:39;;;;;;;;;37.00;23.50;;;;;20.66;40.17;101994.78;5076656;27;46106;-52
2022/02/02 13:48:03;;;;;;;;;34.50;25.75;;;;;20.63;40.04;102001.03;5076717;27;45453;-50
2022/02/02 13:53:37;;;;;;;;;26.75;19.25;;;;;20.63;39.60;101989.63;5076398;27;45418;-47
2022/02/02 14:01:23;;;;;;;;;21.25;18.25;;;;;20.60;40.01;101995.88;5075778;28;45439;-49
2022/02/02 14:04:07;;;;;;;;;21.50;16.50;;;;;20.61;39.85;102002.88;5076235;27;46208;-48
2022/02/02 14:33:32;;;;;;;;;16.00;10.75;;;;;20.50;39.53;101978.69;5076322;27;45495;-54
2022/02/02 14:36:01;;;;;;;;;12.75;9.75;;;;;20.50;39.84;101983.97;5075876;27;45406;-53
2022/02/02 14:38:34;;;;;;;;;14.25;9.75;;;;;20.50;40.24;101991.88;5076083;27;45853;-51
2022/02/02 14:41:09;;;;;;;;;12.75;11.00;;;;;20.46;39.82;101983.22;5075997;28;45284;-55
2022/02/02 14:43:41;;;;;;;;;15.75;10.50;;;;;20.49;39.24;102014.72;5076501;27;45344;-54
2022/02/02 14:46:10;;;;;;;;;7.50;7.50;;;;;20.48;39.31;102012.13;5075754;27;46363;-55
2022/02/02 14:48:44;;;;;;;;;11.00;9.75;;;;;20.47;39.50;102006.00;5077177;27;45788;-56
2022/02/02 15:16:53;;;;;;;;;7.50;5.50;;;;;20.41;39.05;101992.22;5079419;27;45255;-55
2022/02/02 15:28:50;;;;;;;;;4.50;2.25;;;;;20.36;39.05;102005.53;5078720;28;45252;-57
2022/02/02 15:31:16;;;;;;;;;7.25;4.75;;;;;20.38;39.16;102003.72;5077458;27;45670;-55
2022/02/02 15:33:43;;;;;;;;;6.75;5.50;;;;;20.36;39.60;102010.81;5079353;27;45349;-57
2022/02/02 15:38:53;;;;;;;;;3.00;3.00;;;;;20.32;39.39;102012.69;5078523;27;45414;-54
2022/02/02 15:41:29;;;;;;;;;4.75;3.25;;;;;20.36;39.58;102018.72;5078578;27;45457;-56
2022/02/02 16:00:41;;;;;;;;;4.25;2.00;;;;;20.31;39.33;102005.72;5077134;27;45929;-53
2022/02/02 16:05:33;;;;;;;;;3.25;2.00;;;;;20.30;38.99;101982.03;5078323;27;45493;-53
2022/02/02 16:08:04;;;;;;;;;2.25;2.00;;;;;20.30;39.09;101987.31;5078239;27;45455;-57
2022/02/02 16:10:42;;;;;;;;;5.00;2.75;;;;;20.27;39.50;101988.28;5077946;27;47430;-52
2022/02/02 16:13:15;;;;;;;;;2.50;1.25;;;;;20.28;39.08;101989.16;5078049;27;45353;-57
2022/02/02 16:15:41;;;;;;;;;3.00;3.00;;;;;20.27;39.37;101983.03;5078212;27;45247;-55
2022/02/02 16:31:50;;;;;;;;;3.00;2.00;;;;;20.23;39.17;101987.53;5065464;27;45908;-56
2022/02/02 16:37:23;;;;;;;;;3.00;2.25;;;;;20.24;39.44;101980.50;5035628;28;45356;-56
2022/02/02 16:39:57;;;;;;;;;1.25;1.00;;;;;20.24;38.96;101975.22;5071273;27;45540;-55
2022/02/02 16:45:06;;;;;;;;;1.00;1.00;;;;;20.23;39.42;101976.13;5077577;27;45848;-56
2022/02/02 16:47:32;;;;;;;;;1.50;1.50;;;;;20.21;38.75;101970.09;5077560;27;45142;-57
2022/02/02 16:49:57;;;;;;;;;2.00;2.00;;;;;20.22;38.96;101979.72;5077685;27;45567;-58
2022/02/02 16:52:25;;;;;;;;;3.75;2.75;;;;;20.21;39.03;101968.31;5077416;27;45372;-56
2022/02/02 16:54:53;;;;;;;;;2.00;2.00;;;;;20.21;39.24;101963.03;5077402;27;45833;-57
2022/02/02 17:32:30;;;;;;;;;1.25;1.25;;;;;20.29;38.73;101954.88;5077263;27;45272;-54
2022/02/02 17:35:12;;;;;;;;;3.00;1.25;;;;;20.29;38.80;101965.41;5076834;27;45867;-51
2022/02/02 18:20:28;;;;;;;;;4.00;2.75;;;;;20.29;38.47;101983.84;5076370;28;45784;-55
2022/02/02 18:28:13;;;;;;;;;4.25;2.50;;;;;20.28;39.02;101984.75;5079644;27;45254;-56
2022/02/02 18:33:23;;;;;;;;;5.00;4.00;;;;;20.29;38.34;101965.41;5079803;27;45387;-53
2022/02/02 18:35:58;;;;;;;;;4.00;4.00;;;;;20.28;38.68;101961.06;5079000;28;45463;-54
2022/02/02 18:46:27;;;;;;;;;4.00;3.75;;;;;20.29;38.37;101961.91;5079818;27;45755;-53
2022/02/02 19:02:40;;;;;;;;;2.50;2.50;;;;;20.52;38.48;101967.19;5079369;28;45846;-50
2022/02/02 19:38:10;;;;;;;;;3.75;3.00;;;;;21.20;37.52;101974.31;5078770;28;45336;-54
2022/02/02 19:40:42;;;;;;;;;3.75;3.00;;;;;21.22;37.25;101961.03;5078916;27;45328;-55
2022/02/02 20:02:03;;;;;;;;;5.25;3.25;;;;;21.40;37.31;101956.81;5078616;27;45318;-55
2022/02/02 20:07:10;;;;;;;;;3.50;2.00;;;;;21.42;37.17;101954.97;5078195;27;45530;-57
2022/02/02 20:12:26;;;;;;;;;2.25;2.00;;;;;21.43;37.27;101959.31;5078245;28;45493;-57
2022/02/02 20:14:51;;;;;;;;;3.50;3.50;;;;;21.45;37.22;101962.72;5077985;27;46466;-53
2022/02/02 20:17:19;;;;;;;;;2.25;2.00;;;;;21.46;37.20;101959.16;5076210;27;45343;-56
2022/02/02 20:19:50;;;;;;;;;3.25;3.00;;;;;21.45;37.10;101968.88;5076813;27;45418;-56
2022/02/02 20:22:18;;;;;;;;;7.00;3.00;;;;;21.47;36.85;101976.72;5075708;28;45410;-56
2022/02/02 20:24:52;;;;;;;;;2.00;2.00;;;;;21.48;36.87;101981.06;5076687;27;46247;-56
2022/02/02 20:27:18;;;;;;;;;3.00;2.50;;;;;21.50;37.33;101986.31;5076734;27;45295;-55
2022/02/02 20:29:43;;;;;;;;;3.75;3.00;;;;;21.48;37.27;101978.44;5076992;27;45420;-55
2022/02/02 20:32:08;;;;;;;;;3.00;2.00;;;;;21.51;36.78;101977.44;5076857;27;45318;-56
2022/02/02 20:34:34;;;;;;;;;3.00;2.50;;;;;21.50;37.05;101981.88;5076741;27;46111;-56
2022/02/02 20:37:00;;;;;;;;;4.50;2.75;;;;;21.51;37.03;101983.59;5077075;27;45436;-56
2022/02/02 20:39:39;;;;;;;;;3.50;3.00;;;;;21.51;36.99;101983.59;5077075;28;45872;-56
2022/02/02 20:42:07;;;;;;;;;2.50;2.00;;;;;21.52;37.09;101979.16;5077253;27;45572;-55
2022/02/02 21:02:48;;;;;;;;;1.00;1.00;;;;;21.54;36.61;101978.19;5076193;28;45298;-55
2022/02/02 21:06:43;;;;;;;;;2.00;2.00;;;;;21.54;36.51;101975.56;5076337;27;45380;-56
2022/02/02 21:09:28;;;;;;;;;1.25;1.25;;;;;21.54;36.26;101983.47;5074780;28;45309;-56
2022/02/02 21:14:24;;;;;;;;;1.75;1.75;;;;;21.53;36.24;101970.31;5075956;27;45582;-56
2022/02/02 21:16:50;;;;;;;;;3.00;1.75;;;;;21.53;36.44;101970.31;5076178;27;47316;-55
2022/02/02 21:19:27;;;;;;;;;2.00;2.00;;;;;21.54;36.13;101969.41;5076863;27;45372;-58
2022/02/02 21:21:58;;;;;;;;;1.50;1.50;;;;;21.51;36.38;101962.50;5077160;27;45253;-58
2022/02/02 21:29:16;;;;;;;;;3.00;1.00;;;;;21.53;36.27;101967.69;5076979;27;45923;-58
2022/02/02 21:31:41;;;;;;;;;2.00;2.00;;;;;21.52;36.43;101966.84;5075811;28;45406;-58
2022/02/02 21:34:07;;;;;;;;;2.00;2.00;;;;;21.52;36.20;101953.66;5076780;28;45236;-57
2022/02/02 21:36:33;;;;;;;;;2.75;2.00;;;;;21.52;36.40;101958.06;5076795;27;46541;-57
2022/02/02 21:39:04;;;;;;;;;2.00;2.00;;;;;21.51;36.08;101962.50;5075735;28;45876;-58
2022/02/02 21:41:35;;;;;;;;;3.25;2.75;;;;;21.51;36.14;101961.63;5077023;27;45413;-58
2022/02/02 21:44:02;;;;;;;;;1.00;1.00;;;;;21.49;36.21;101960.84;5077334;27;45345;-58
2022/02/02 21:46:28;;;;;;;;;3.00;1.25;;;;;21.46;36.15;101953.91;5076922;27;46564;-58
2022/02/02 21:48:55;;;;;;;;;1.00;1.00;;;;;21.44;36.19;101947.84;5076800;27;45205;-58
2022/02/02 21:51:29;;;;;;;;;2.00;2.00;;;;;21.42;36.14;101957.59;5076916;27;45301;-58
2022/02/02 21:53:55;;;;;;;;;2.00;2.00;;;;;21.40;35.93;101956.81;5076833;27;45296;-58
2022/02/02 21:56:21;;;;;;;;;2.00;2.00;;;;;21.38;36.63;101958.63;5076557;27;46227;-59
2022/02/02 21:58:48;;;;;;;;;1.75;1.75;;;;;21.37;36.26;101954.28;5075451;28;45236;-57
2022/02/02 22:01:13;;;;;;;;;1.00;1.00;;;;;21.34;36.33;101951.75;5076751;27;45348;-57
2022/02/02 22:03:39;;;;;;;;;2.00;1.00;;;;;21.32;36.29;101946.56;5076786;27;45567;-58
2022/02/02 22:06:04;;;;;;;;;3.00;0.75;;;;;21.31;35.86;101943.09;5092165;27;48253;-58
2022/02/02 22:08:29;;;;;;;;;2.00;2.00;;;;;21.29;36.20;101942.28;5076755;28;45383;-57
2022/02/02 22:10:55;;;;;;;;;2.25;0.00;;;;;21.28;36.48;101935.28;5076586;28;45286;-57
2022/02/02 22:13:23;;;;;;;;;1.00;1.00;;;;;21.26;35.86;101936.28;5076770;27;45553;-57
2022/02/02 22:15:54;;;;;;;;;1.00;1.00;;;;;21.25;36.28;101929.28;5076352;27;45469;-56
2022/02/02 22:18:20;;;;;;;;;1.00;1.00;;;;;21.23;35.79;101937.25;5076443;27;45337;-57
2022/02/02 22:20:45;;;;;;;;;2.75;2.00;;;;;21.22;36.70;101930.25;5076533;27;45341;-57
2022/02/02 22:23:11;;;;;;;;;1.00;1.00;;;;;21.21;36.25;101931.19;5058425;28;45542;-58
2022/02/02 22:25:37;;;;;;;;;3.00;2.00;;;;;21.20;35.97;101925.97;5076101;27;46287;-57
2022/02/02 22:28:03;;;;;;;;;2.00;2.00;;;;;21.18;36.09;101931.31;5076433;27;45374;-56
2022/02/02 22:30:29;;;;;;;;;1.00;1.00;;;;;21.16;35.82;101930.50;5076253;28;45204;-57
2022/02/02 22:32:55;;;;;;;;;0.75;0.75;;;;;21.16;35.97;101936.66;5076323;27;45177;-58